createdAt,value
2023-01-12T00:00:09.031Z,76.01
2023-01-12T00:05:15.405Z,75.26
2023-01-12T00:10:17.682Z,75.60
2023-01-12T00:15:39.763Z,75.11
2023-01-12T00:20:47.951Z,75.81
2023-01-12T00:25:54.439Z,75.26
2023-01-12T00:31:01.067Z,74.50
2023-01-12T00:36:08.746Z,75.22
2023-01-12T00:41:32.920Z,78.26
2023-01-12T00:46:35.160Z,77.09
2023-01-12T00:51:37.256Z,77.74
2023-01-12T00:56:39.675Z,76.44
2023-01-12T01:01:41.896Z,75.60
2023-01-12T01:06:44.005Z,78.12
2023-01-12T01:11:46.137Z,80.80
2023-01-12T01:16:48.451Z,76.67
2023-01-12T01:21:50.761Z,79.22
2023-01-12T01:26:53.048Z,79.52
2023-01-12T01:31:55.668Z,78.93
2023-01-12T01:36:59.141Z,80.15
2023-01-12T01:42:01.294Z,80.01
2023-01-12T01:47:08.541Z,80.31
2023-01-12T01:52:14.738Z,78.38
2023-01-12T01:57:17.047Z,80.96
2023-01-12T02:02:19.623Z,78.68
2023-01-12T02:07:21.939Z,77.76
2023-01-12T02:12:42.567Z,78.36
2023-01-12T02:18:12.785Z,77.84
2023-01-12T02:23:42.372Z,76.32
2023-01-12T02:29:13.660Z,76.37
2023-01-12T02:34:24.545Z,78.76
2023-01-12T02:39:30.652Z,77.26
2023-01-12T02:44:40.619Z,77.52
2023-01-12T02:49:45.400Z,78.68
2023-01-12T02:54:49.077Z,78.59
2023-01-12T02:59:52.486Z,78.41
2023-01-12T03:04:55.310Z,78.92
2023-01-12T03:10:13.612Z,79.04
2023-01-12T03:15:17.589Z,78.47
2023-01-12T03:20:28.530Z,79.99
2023-01-12T03:25:31.313Z,79.99
2023-01-12T03:30:37.764Z,80.32
2023-01-12T03:35:46.112Z,78.92
2023-01-12T03:40:56.193Z,79.88
2023-01-12T03:46:05.080Z,80.31
2023-01-12T03:51:14.661Z,80.01
2023-01-12T03:56:18.725Z,79.61
2023-01-12T04:01:20.880Z,79.61
2023-01-12T04:06:23.484Z,79.55
2023-01-12T04:11:44.325Z,78.96
2023-01-12T04:16:47.042Z,79.24
2023-01-12T04:22:07.870Z,77.89
2023-01-12T04:27:10.179Z,78.96
2023-01-12T04:32:12.607Z,78.74
2023-01-12T04:37:15.054Z,79.40
2023-01-12T04:42:35.867Z,78.29
2023-01-12T04:47:38.118Z,79.35
2023-01-12T04:52:40.227Z,78.66
2023-01-12T04:57:42.660Z,79.77
2023-01-12T05:02:44.915Z,80.46
2023-01-12T05:08:05.550Z,82.09
2023-01-12T05:13:07.660Z,81.23
2023-01-12T05:18:09.789Z,82.13
2023-01-12T05:23:12.025Z,80.64
2023-01-12T05:28:14.332Z,80.83
2023-01-12T05:33:17.854Z,80.77
2023-01-12T05:38:20.330Z,81.47
2023-01-12T05:43:41.083Z,82.98
2023-01-12T05:48:43.138Z,80.76
2023-01-12T05:53:45.510Z,81.56
2023-01-12T05:58:52.605Z,80.61
2023-01-12T06:04:00.279Z,81.51
2023-01-12T06:09:02.587Z,82.65
2023-01-12T06:14:05.648Z,82.18
2023-01-12T06:19:09.310Z,82.50
2023-01-12T06:24:12.229Z,83.05
2023-01-12T06:29:14.345Z,80.68
2023-01-12T06:34:16.698Z,80.50
2023-01-12T06:39:18.800Z,81.75
2023-01-12T06:44:20.953Z,80.85
2023-01-12T06:49:23.056Z,82.43
2023-01-12T06:54:25.311Z,83.75
2023-01-12T06:59:27.325Z,82.04
2023-01-12T07:04:29.413Z,80.86
2023-01-12T07:09:31.465Z,82.75
2023-01-12T07:14:33.795Z,83.38
2023-01-12T07:19:35.950Z,82.93
2023-01-12T07:24:38.158Z,84.54
2023-01-12T07:29:40.373Z,82.79
2023-01-12T07:34:42.448Z,82.11
2023-01-12T07:39:44.497Z,84.20
2023-01-12T07:44:46.578Z,83.13
2023-01-12T07:49:48.817Z,83.84
2023-01-12T07:54:50.838Z,84.48
2023-01-12T07:59:52.959Z,83.98
2023-01-12T08:04:55.209Z,82.45
2023-01-12T08:09:57.320Z,83.03
2023-01-12T08:15:00.593Z,81.09
2023-01-12T08:20:09.120Z,83.63
2023-01-12T08:25:17.897Z,81.73
2023-01-12T08:30:22.039Z,83.68
2023-01-12T08:35:25.411Z,82.99
2023-01-12T08:40:47.425Z,83.62
2023-01-12T08:45:49.703Z,83.17
2023-01-12T08:50:51.926Z,82.71
2023-01-12T08:55:54.300Z,82.59
2023-01-12T09:00:56.668Z,84.42
2023-01-12T09:05:58.942Z,83.62
2023-01-12T09:11:05.405Z,82.65
2023-01-12T09:16:13.608Z,81.27
2023-01-12T09:21:21.242Z,82.64
2023-01-12T09:26:27.017Z,82.73
2023-01-12T09:31:30.754Z,81.44
2023-01-12T09:36:35.038Z,84.08
2023-01-12T09:42:06.604Z,82.11
2023-01-12T09:47:15.663Z,81.24
2023-01-12T09:52:21.272Z,81.14
2023-01-12T09:57:39.192Z,81.91
2023-01-12T10:02:52.957Z,81.38
2023-01-12T10:07:55.776Z,80.34
2023-01-12T10:13:01.055Z,79.47
2023-01-12T10:18:27.178Z,80.74
2023-01-12T10:23:29.299Z,79.70
2023-01-12T10:28:33.674Z,80.41
2023-01-12T10:33:36.291Z,81.38
2023-01-12T10:38:40.481Z,81.56
2023-01-12T10:43:44.246Z,79.93
2023-01-12T10:48:48.155Z,80.67
2023-01-12T10:53:57.561Z,81.92
2023-01-12T10:59:01.934Z,79.64
2023-01-12T11:04:05.722Z,81.54
2023-01-12T11:09:18.553Z,82.63
2023-01-12T11:14:26.902Z,81.69
2023-01-12T11:19:38.648Z,82.54
2023-01-12T11:24:43.384Z,83.69
2023-01-12T11:29:59.889Z,83.25
2023-01-12T11:35:26.443Z,82.09
2023-01-12T11:40:31.783Z,82.97
2023-01-12T11:45:41.323Z,81.79
2023-01-12T11:50:44.845Z,80.52
2023-01-12T11:56:06.233Z,81.03
2023-01-12T12:01:53.500Z,81.76
2023-01-12T12:07:17.536Z,81.51
2023-01-12T12:12:46.745Z,81.96
2023-01-12T12:17:58.821Z,81.50
2023-01-12T12:23:31.744Z,80.95
2023-01-12T12:28:52.761Z,82.36
2023-01-12T12:34:23.294Z,83.22
2023-01-12T12:39:28.364Z,81.61
2023-01-12T12:45:06.601Z,82.16
2023-01-12T12:50:20.547Z,83.40
2023-01-12T12:55:22.625Z,82.46
2023-01-12T13:00:30.529Z,83.48
2023-01-12T13:05:47.624Z,83.00
2023-01-12T13:10:57.699Z,84.12
2023-01-12T13:16:43.414Z,83.51
2023-01-12T13:21:58.186Z,80.17
2023-01-12T13:27:01.784Z,81.11
2023-01-12T13:32:31.441Z,81.60
2023-01-12T13:37:57.678Z,80.66
2023-01-12T13:43:17.064Z,80.52
2023-01-12T13:48:19.470Z,80.49
2023-01-12T13:53:28.711Z,80.59
2023-01-12T13:58:40.441Z,79.76
2023-01-12T14:04:05.071Z,81.40
2023-01-12T14:09:10.620Z,80.82
2023-01-12T14:14:59.241Z,82.81
2023-01-12T14:20:01.540Z,81.68
2023-01-12T14:25:17.833Z,82.33
2023-01-12T14:30:21.339Z,81.20
2023-01-12T14:35:25.138Z,82.77
2023-01-12T14:40:31.933Z,81.48
2023-01-12T14:45:52.587Z,82.95
2023-01-12T14:51:11.024Z,83.38
2023-01-12T14:56:19.123Z,83.35
2023-01-12T15:01:32.966Z,83.86
2023-01-12T15:06:39.117Z,81.18
2023-01-12T15:11:41.172Z,81.46
2023-01-12T15:17:01.855Z,82.94
2023-01-12T15:22:26.987Z,82.28
2023-01-12T15:27:29.528Z,83.27
2023-01-12T15:32:48.501Z,82.10
2023-01-12T15:37:53.388Z,83.57
2023-01-12T15:42:55.541Z,81.16
2023-01-12T15:47:57.685Z,83.15
2023-01-12T15:53:00.899Z,81.94
2023-01-12T15:58:03.051Z,82.70
2023-01-12T16:03:06.117Z,82.63
2023-01-12T16:08:08.241Z,83.00
2023-01-12T16:13:11.903Z,80.61
2023-01-12T16:18:16.523Z,81.28
2023-01-12T16:23:18.616Z,81.54
2023-01-12T16:28:20.881Z,82.59
2023-01-12T16:33:23.230Z,82.17
2023-01-12T16:38:25.372Z,83.49
2023-01-12T16:43:29.711Z,84.22
2023-01-12T16:48:33.582Z,84.73
2023-01-12T16:53:36.001Z,82.26
2023-01-12T16:58:38.531Z,82.07
2023-01-12T17:03:43.875Z,80.56
2023-01-12T17:08:46.227Z,83.83
2023-01-12T17:13:54.559Z,84.19
2023-01-12T17:18:56.903Z,83.42
2023-01-12T17:23:59.422Z,83.12
2023-01-12T17:29:01.698Z,83.64
2023-01-12T17:34:04.971Z,83.74
2023-01-12T17:39:07.710Z,82.84
2023-01-12T17:44:10.064Z,83.73
2023-01-12T17:49:13.565Z,85.17
2023-01-12T17:54:16.819Z,83.50
2023-01-12T17:59:20.958Z,84.23
2023-01-12T18:04:23.850Z,83.52
2023-01-12T18:09:27.852Z,85.21
2023-01-12T18:14:30.760Z,83.94
2023-01-12T18:19:33.355Z,82.57
2023-01-12T18:24:35.997Z,81.88
2023-01-12T18:29:38.462Z,85.07
2023-01-12T18:34:49.631Z,83.70
2023-01-12T18:39:51.980Z,85.57
2023-01-12T18:44:54.144Z,84.53
2023-01-12T18:49:58.427Z,83.16
2023-01-12T18:55:01.002Z,83.24
2023-01-12T19:00:14.776Z,81.15
2023-01-12T19:05:31.173Z,82.91
2023-01-12T19:10:34.094Z,83.75
2023-01-12T19:15:55.915Z,84.05
2023-01-12T19:21:16.546Z,84.79
2023-01-12T19:26:38.296Z,84.03
2023-01-12T19:31:40.464Z,83.29
2023-01-12T19:36:42.750Z,82.35
2023-01-12T19:42:03.487Z,81.51
2023-01-12T19:47:05.566Z,82.27
2023-01-12T19:52:07.615Z,82.46
2023-01-12T19:57:09.798Z,84.05
2023-01-12T20:02:12.694Z,83.25
2023-01-12T20:07:15.121Z,80.36
2023-01-12T20:12:17.366Z,80.94
2023-01-12T20:17:19.582Z,81.56
2023-01-12T20:22:21.681Z,81.67
2023-01-12T20:27:24.150Z,81.26
2023-01-12T20:32:31.459Z,82.37
2023-01-12T20:37:34.132Z,81.28
2023-01-12T20:42:36.747Z,81.95
2023-01-12T20:47:39.498Z,81.58
2023-01-12T20:52:41.819Z,81.07
2023-01-12T20:57:43.997Z,79.07
2023-01-12T21:02:46.440Z,81.56
2023-01-12T21:07:52.058Z,80.60
2023-01-12T21:12:56.363Z,80.65
2023-01-12T21:17:58.635Z,84.12
2023-01-12T21:23:01.391Z,82.25
2023-01-12T21:28:04.124Z,83.87
2023-01-12T21:33:06.552Z,81.83
2023-01-12T21:38:09.274Z,82.20
2023-01-12T21:43:13.151Z,79.26
2023-01-12T21:48:17.355Z,78.18
2023-01-12T21:53:21.765Z,81.02
2023-01-12T21:58:24.843Z,83.35
2023-01-12T22:03:28.408Z,81.11
2023-01-12T22:08:30.568Z,81.21
2023-01-12T22:13:33.503Z,80.61
2023-01-12T22:18:36.361Z,80.77
2023-01-12T22:23:39.961Z,81.16
2023-01-12T22:28:44.336Z,81.31
2023-01-12T22:33:47.952Z,80.97
2023-01-12T22:38:50.202Z,81.04
2023-01-12T22:43:52.880Z,79.94
2023-01-12T22:48:56.555Z,79.61
2023-01-12T22:53:59.564Z,81.55
2023-01-12T22:59:02.095Z,80.80
2023-01-12T23:04:04.795Z,81.59
2023-01-12T23:09:07.584Z,79.17
2023-01-12T23:14:09.863Z,78.48
2023-01-12T23:19:12.370Z,79.40
2023-01-12T23:24:14.847Z,80.94
2023-01-12T23:29:17.616Z,80.08
2023-01-12T23:34:20.043Z,81.02
2023-01-12T23:39:22.312Z,81.57
2023-01-12T23:44:25.555Z,81.03
2023-01-12T23:49:28.035Z,80.09
2023-01-12T23:54:30.637Z,81.77
2023-01-12T23:59:33.151Z,81.64
